x

Manistee Harbor, Mi (meem4) Weather Station

9:40pm - Mon 20th Apr 2015 All times are CDT. -5 hours from GMT.

  • Wind
    13mph, 18mph gusts
  • Air Temp 40°f
  • Sea Pressure 998.6mb
  • Manistee Harbor, Mi
  • Manistee Harbor, Mi

More Historic Weather Station data

Upgrade to MSW Pro to gain access to the past 30 days of data for over 8000 Wavebouys and Weather Stations around the globe.

Join Pro

Comparision Forecast

View Surf forecast
   
Mon 04/20 9:40pm 13 18 mph 998.6mb 40f
9:30pm 14 17 mph 998.6mb 40f
9:20pm 14 16 mph 998.6mb 40f
9:10pm 15 18 mph 998.3mb 40f
9:00pm 14 20 mph 998.3mb 40f
8:40pm 18 22 mph 998mb 40f
8:30pm 16 20 mph 997.6mb 40f
8:20pm 16 18 mph 998mb 40f
8:10pm 16 18 mph 997.6mb 40f
8:00pm 16 18 mph 997.6mb 40f
7:40pm 14 16 mph 997.3mb 40f
7:30pm 13 15 mph 997.3mb 40f
7:20pm 14 17 mph 997.3mb 40f
7:10pm 15 18 mph 997.3mb 39f
7:00pm 17 20 mph 997.3mb 39f
6:40pm 13 15 mph 997.3mb 39f
6:30pm 11 14 mph 997.3mb 39f
6:20pm 11 13 mph 997.3mb 39f
6:10pm 10 13 mph 997.3mb 39f
6:00pm 10 14 mph 997mb 39f
5:40pm 14 18 mph 996.6mb 39f
5:30pm 16 23 mph 996.6mb 40f
5:20pm 18 22 mph 996.3mb 40f
5:10pm 18 22 mph 996.3mb 40f
5:00pm 17 22 mph 996.3mb 40f
4:40pm 17 21 mph 995.6mb 39f
4:30pm 17 20 mph 995.3mb 39f
4:20pm 17 20 mph 994.6mb 39f
4:10pm 17 22 mph 994.2mb 39f
4:00pm 18 21 mph 993.9mb 39f
3:40pm 18 23 mph 993.2mb 39f
3:30pm 21 26 mph 993.2mb 39f
3:20pm 22 25 mph 992.9mb 39f
3:10pm 20 23 mph 992.9mb 39f
3:00pm 17 21 mph 992.6mb 40f
2:40pm 16 20 mph 992.9mb 40f
2:30pm 17 18 mph 992.9mb 40f
2:20pm 15 21 mph 992.6mb 40f
2:10pm 18 22 mph 992.6mb 40f
2:00pm 16 18 mph 991.9mb 41f
1:40pm 18 23 mph 991.5mb 41f
1:30pm 18 21 mph 990.9mb 41f
1:20pm 17 20 mph 990.5mb 41f
1:10pm 16 20 mph 990.2mb 41f
1:00pm 17 20 mph 990.2mb 41f
12:40pm 18 21 mph 990.2mb 40f
12:30pm 16 17 mph 990.2mb 40f
12:20pm 14 17 mph 990.2mb 40f
12:10pm 14 15 mph 990.2mb 40f
12:00pm 14 15 mph 990.2mb 40f
11:40am 11 14 mph 990.2mb 39f
11:30am 10 11 mph 990.2mb 39f
11:20am 9 11 mph 989.8mb 39f
11:10am 11 14 mph 989.8mb 39f
11:00am 13 15 mph 989.8mb 39f
10:40am 11 14 mph 989.5mb 38f
10:30am 13 14 mph 989.2mb 38f
10:20am 10 13 mph 988.8mb 38f
10:10am 10 14 mph 988.5mb 38f
10:00am 11 15 mph 988.1mb 38f
9:40am 14 17 mph 987.8mb 38f
9:30am 16 22 mph 987.8mb 38f
9:20am 17 23 mph 987.8mb 38f
9:10am 20 23 mph 987.5mb 38f
9:00am 20 23 mph 987.5mb 38f
8:40am 13 14 mph 987.5mb 39f
8:30am 11 13 mph 987.1mb 39f
8:20am 10 11 mph 987.1mb 39f
8:10am 9 10 mph 987.1mb 39f
8:00am 9 10 mph 987.1mb 39f
7:40am 7
mph
986.5mb 41f
7:30am 3 5 mph 986.1mb 41f
7:20am 2 3 mph 986.1mb 41f
7:10am 2 3 mph 986.1mb 42f
7:00am 2 3 mph 986.8mb 42f
6:40am 3 5 mph 986.8mb 42f
6:30am 3 5 mph 987.1mb 42f
6:20am 5 6 mph 987.1mb 42f
6:10am 5 6 mph 986.8mb 42f
6:00am 6 7 mph 986.5mb 43f
5:40am 7 8 mph 986.5mb 43f
5:30am 7 8 mph 987.1mb 42f
5:20am 7 8 mph 987.5mb 42f
5:10am 7 8 mph 987.5mb 43f
5:00am 7 8 mph 987.5mb 43f
4:40am 8 10 mph 987.1mb 43f
4:30am 7 8 mph 987.8mb 44f
4:20am 8 9 mph 988.5mb 44f
4:10am 8 9 mph 988.8mb 44f
4:00am 6 8 mph 988.5mb 46f
3:40am 8 10 mph 988.8mb 46f
3:30am 7 10 mph 989.5mb 46f
3:20am 8 11 mph 989.5mb 49f
3:10am 6 9 mph 989.2mb 49f
3:00am 6 9 mph 989.5mb 49f
2:40am 7 11 mph 990.5mb 49f
2:30am 9 11 mph 990.2mb 49f
2:20am 8 11 mph 990.2mb 49f
2:10am 7 11 mph 991.2mb 49f
2:00am 9 13 mph 991.5mb 49f
1:40am 8 15 mph 991.5mb 50f
1:30am 9 14 mph 991.9mb 50f
1:20am 9 14 mph 992.9mb 50f
1:10am 9 13 mph 993.2mb 49f
1:00am 8 11 mph 993.2mb 49f
12:40am 9 13 mph 994.2mb 49f
12:30am 8 15 mph 994.9mb 49f
12:20am 9 13 mph 994.9mb 49f
12:10am 8 11 mph 994.9mb 49f
12:00am 8 15 mph 995.6mb 49f
Sun 04/19 11:40pm 9 14 mph 996.6mb 49f
11:30pm 9 15 mph 996.3mb 49f
11:20pm 8 11 mph 996.6mb 49f
11:10pm 8 11 mph 997.6mb 49f
11:00pm 8 14 mph 997.6mb 49f
10:40pm 10 16 mph 997.6mb 49f
10:30pm 10 14 mph 998.6mb 49f
10:20pm 10 14 mph 999mb 49f
10:10pm 7 14 mph 998.6mb 50f
10:00pm 7 14 mph 999mb 50f
9:50pm 10 16 mph 1000mb 51f
9:40pm 7 18 mph 999.3mb 51f
9:30pm 7 15 mph 1000mb 52f
9:20pm 9 17 mph 1000.3mb 52f
9:10pm 8 18 mph 1000mb 53f
9:00pm 9 14 mph 1000.7mb 53f
8:50pm 7 10 mph 1001mb 53f
8:40pm 7 14 mph 1000.3mb 53f
8:30pm 8 13 mph 1001.4mb 53f
8:20pm 7 14 mph 1001mb 53f
8:10pm 9 17 mph 1001.4mb 53f
8:00pm 11 17 mph 1001mb 53f
7:50pm 13 18 mph 1001.7mb 51f
7:40pm 10 24 mph 1001mb 52f
7:30pm 15 25 mph 1002mb 57f
7:20pm 15 28 mph 1001.7mb 59f
7:10pm 11 24 mph 1001.4mb 60f
7:00pm 14 22 mph 1001.4mb 61f
6:50pm 15 26 mph 1002.4mb 61f
6:40pm 13 21 mph 1002.4mb 62f
6:30pm 13 29 mph 1002.4mb 62f
6:20pm 15 26 mph 1002mb 62f
6:10pm 18 24 mph 1002.4mb 63f
6:00pm 16 29 mph 1003mb 63f
5:50pm 13 23 mph 1003mb 64f
5:40pm 16 24 mph 1003mb 64f
5:30pm 14 22 mph 1003.4mb 65f
5:20pm 16 26 mph 1003.4mb 66f
5:10pm 14 23 mph 1003.4mb 67f
5:00pm 15 21 mph 1003.4mb 68f
4:50pm 14 23 mph 1003.4mb 69f
4:40pm 13 23 mph 1003.4mb 70f
4:30pm 15 25 mph 1003.4mb 70f
4:20pm 14 24 mph 1004.1mb 70f
4:10pm 17 23 mph 1004.7mb 70f
4:00pm 8 21 mph 1004.4mb 72f
3:50pm 15 23 mph 1004.1mb 71f
3:40pm 13 23 mph 1004.4mb 71f
3:30pm 11 20 mph 1005.4mb 72f
3:20pm 15 23 mph 1005.8mb 71f
3:10pm 14 25 mph 1005.8mb 72f
3:00pm 15 24 mph 1005.4mb 72f
2:50pm 14 23 mph 1005.8mb 71f
2:40pm 14 21 mph 1006.4mb 71f
2:30pm 16 24 mph 1006.8mb 71f
2:20pm 16 26 mph 1006.8mb 71f
2:10pm 16 23 mph 1007.1mb 70f
2:00pm 13 22 mph 1007.1mb 70f
1:50pm 13 23 mph 1007.1mb 70f
1:40pm 17 24 mph 1007.1mb 69f
1:30pm 10 22 mph 1007.8mb 70f
1:20pm 14 25 mph 1007.8mb 69f
1:10pm 10 25 mph 1007.8mb 69f
1:00pm 16 26 mph 1008.1mb 68f
12:50pm 18 24 mph 1008.8mb 67f
12:40pm 18 29 mph 1009.5mb 67f
12:30pm 20 29 mph 1009.5mb 66f
12:20pm 20 30 mph 1009.8mb 66f
12:10pm 16 25 mph 1009.5mb 66f
12:00pm 21 28 mph 1009.8mb 65f
11:50am 21 31 mph 1010.5mb 65f
11:40am 18 31 mph 1011.2mb 64f
11:30am 21 29 mph 1010.8mb 63f
11:20am 21 29 mph 1010.8mb 63f
11:10am 20 29 mph 1011.9mb 62f
11:00am 17 30 mph 1011.2mb 61f
10:50am 20 33 mph 1012.2mb 61f
10:40am 16 30 mph 1011.9mb 61f
10:30am 22 30 mph 1012.2mb 60f
10:20am 15 26 mph 1011.9mb 60f
10:10am 14 28 mph 1012.5mb 58f
10:00am 18 30 mph 1011.9mb 58f
9:50am 17 29 mph 1012.9mb 57f
9:40am 18 30 mph 1012.2mb 56f
9:30am 16 26 mph 1013.2mb 55f
9:20am 23 31 mph 1012.9mb 55f
9:10am 25 33 mph 1013.2mb 55f
9:00am 18 32 mph 1013.5mb 55f
8:50am 18 31 mph 1013.2mb 55f
8:40am 20 32 mph 1013.9mb 54f
8:30am 18 29 mph 1014.2mb 53f
8:20am 17 31 mph 1013.5mb 52f
8:10am 21 30 mph 1013.9mb 51f
8:00am 21 28 mph 1014.9mb 51f
7:50am 21 33 mph 1014.9mb 50f
7:40am 20 30 mph 1014.6mb 50f
7:30am 21 33 mph 1014.6mb 50f
7:20am 18 29 mph 1015.2mb 50f
7:10am 18 30 mph 1015.6mb 49f
7:00am 20 30 mph 1015.9mb 49f
6:50am 13 26 mph 1015.2mb 49f
6:40am 16 29 mph 1015.2mb 49f
6:30am 16 25 mph 1015.6mb 49f
6:20am 15 26 mph 1016.3mb 49f
6:10am 14 31 mph 1016.3mb 48f
6:00am 13 31 mph 1015.9mb 48f
5:50am 18 28 mph 1015.6mb 48f
5:40am 15 26 mph 1015.6mb 48f
5:30am 16 26 mph 1016.3mb 48f
5:20am 17 28 mph 1016.3mb 49f
5:10am 15 26 mph 1016.3mb 49f
5:00am 14 26 mph 1015.9mb 48f
4:50am 13 26 mph 1015.9mb 48f
4:40am 14 24 mph 1016.6mb 48f
4:30am 15 24 mph 1017.3mb 48f
4:20am 14 25 mph 1017.3mb 48f
4:10am 17 24 mph 1016.9mb 48f
4:00am 17 26 mph 1016.3mb 48f
3:50am 15 25 mph 1016.9mb 48f
3:40am 15 23 mph 1017.3mb 48f
3:30am 15 22 mph 1017.6mb 48f
3:20am 14 26 mph 1017.3mb 48f
3:10am 14 25 mph 1016.9mb 48f
3:00am 15 25 mph 1017.3mb 48f
2:50am 18 25 mph 1017.9mb 48f
2:40am 15 24 mph 1018.3mb 48f
2:30am 16 24 mph 1018.3mb 48f
2:20am 16 24 mph 1017.6mb 48f
2:10am 15 24 mph 1017.6mb 48f
2:00am 15 23 mph 1017.9mb 48f
1:50am 13 24 mph 1018.3mb 48f
1:40am 13 23 mph 1017.9mb 48f
1:30am 13 25 mph 1017.6mb 48f
1:20am 15 26 mph 1018.3mb 48f
1:10am 18 26 mph 1019mb 49f
1:00am 13 24 mph 1019.3mb 49f
12:50am 14 25 mph 1019mb 49f
12:40am 11 23 mph 1019mb 49f
12:30am 16 24 mph 1019.6mb 49f
12:20am 15 26 mph 1019.6mb 49f
12:10am 18 26 mph 1019.3mb 50f
12:00am 16 28 mph 1019.3mb 50f
Sat 04/18 11:50pm 17 29 mph 1020mb 50f
11:40pm 17 29 mph 1019.6mb 51f
11:30pm 15 24 mph 1019mb 51f
11:20pm 11 23 mph 1019.6mb 51f
11:10pm 14 24 mph 1019.3mb 52f
11:00pm 16 23 mph 1018.6mb 52f
10:50pm 10 22 mph 1019.6mb 53f
10:40pm 10 16 mph 1019.3mb 53f
10:30pm 10 17 mph 1019mb 54f
10:20pm 11 20 mph 1019.6mb 55f
10:10pm 10 24 mph 1019.3mb 55f
10:00pm 11 15 mph 1019.3mb 56f
9:50pm 10 21 mph 1020mb 56f
9:40pm 14 20 mph 1019mb 56f
9:30pm 8 11 mph 1019.6mb 55f
9:20pm 6 9 mph 1019.6mb 55f
9:10pm 6 8 mph 1019mb 55f
9:00pm 7 10 mph 1019.6mb 55f
8:50pm 7 10 mph 1019.3mb 55f
8:40pm 7 11 mph 1019.3mb 56f
8:30pm 9 13 mph 1019.6mb 56f
8:20pm 9 14 mph 1019mb 56f
8:10pm 9 17 mph 1020mb 57f
8:00pm 13 16 mph 1018.6mb 58f
7:50pm 11 17 mph 1019.6mb 58f
7:40pm 10 15 mph 1019mb 58f
7:30pm 10 16 mph 1019.3mb 59f
7:20pm 10 17 mph 1019mb -
7:10pm 13 16 mph 1019mb -
7:00pm 9 17 mph 1019mb -
6:50pm 10 16 mph 1018.3mb -
6:40pm 11 17 mph 1019.3mb -
6:30pm 10 14 mph 1018.6mb 51f
6:20pm 10 14 mph 1018.3mb 49f
6:10pm 13 17 mph 1019mb 48f
6:00pm 15 18 mph 1019mb 48f
5:50pm 16 20 mph 1018.3mb 48f
5:40pm 17 20 mph 1019.3mb 48f
5:30pm 17 20 mph 1019mb 49f
5:20pm 15 22 mph 1018.6mb 49f
5:10pm 16 20 mph 1019.6mb 49f
5:00pm 17 21 mph 1019.3mb 48f
4:50pm 16 18 mph 1019mb 47f
4:40pm 17 23 mph 1020mb 47f
4:30pm 18 24 mph 1019.3mb 46f
4:20pm 17 22 mph 1019.6mb 46f
4:10pm 18 23 mph 1020mb 46f
4:00pm 20 22 mph 1019.3mb 46f
3:50pm 17 22 mph 1020mb 45f
3:40pm 16 21 mph 1020.7mb 46f
3:30pm 16 21 mph 1019.6mb 44f
3:20pm 20 23 mph 1020mb 44f
3:10pm 21 24 mph 1020.3mb 44f
3:00pm 20 24 mph 1019.6mb 44f
2:50pm 22 24 mph 1020.3mb 45f
2:40pm 20 24 mph 1020.3mb 44f
2:30pm 20 24 mph 1019.6mb 44f
2:20pm 21 24 mph 1020.3mb 44f
2:10pm 20 25 mph 1020.3mb 44f
2:00pm 22 25 mph 1020mb 44f
1:50pm 18 23 mph 1021mb 44f
1:40pm 18 25 mph 1020.7mb 44f
1:30pm 22 25 mph 1020.3mb 44f
1:20pm 18 22 mph 1021mb 44f
1:10pm 21 25 mph 1020.3mb 44f
1:00pm 18 23 mph 1021mb 45f
12:50pm 20 24 mph 1020.7mb 44f
12:40pm 22 24 mph 1020mb 44f
12:30pm 18 22 mph 1021mb 44f
12:20pm 20 23 mph 1020.7mb 44f
12:10pm 18 22 mph 1020.7mb 44f
12:00pm 17 20 mph 1021.7mb 44f
11:50am 16 20 mph 1021mb 44f
11:40am 16 21 mph 1021.3mb 44f
11:30am 16 22 mph 1021.7mb 44f
11:20am 17 21 mph 1021mb 44f
11:10am 16 22 mph 1021.7mb 44f
11:00am 18 22 mph 1022mb 44f
10:50am 18 22 mph 1021.3mb 43f
10:40am 15 22 mph 1021.3mb 44f
10:30am 18 23 mph 1022mb 43f
10:20am 18 24 mph 1021.7mb 43f
10:10am 20 23 mph 1021mb 42f
10:00am 20 23 mph 1021.3mb 42f
9:50am 20 23 mph 1021.7mb 41f
9:40am 18 21 mph 1021.7mb 42f
9:30am 20 23 mph 1021mb 42f
9:20am 20 23 mph 1021.3mb 42f
9:10am 20 24 mph 1021.7mb 42f
9:00am 20 23 mph 1021.3mb 41f
8:50am 20 23 mph 1020.7mb 41f
8:40am 17 21 mph 1021mb 42f
8:30am 17 20 mph 1021.3mb 42f
8:20am 16 18 mph 1021.7mb 41f
8:10am 14 16 mph 1021mb 42f
8:00am 10 14 mph 1020.7mb 43f
7:50am 11 14 mph 1020.7mb 44f
7:40am 11 15 mph 1021.3mb 44f
7:30am 13 16 mph 1021mb 44f
7:20am 13 16 mph 1021mb 44f
7:10am 13 16 mph 1020.7mb 44f
7:00am 14 20 mph 1020.3mb 44f
6:50am 15 20 mph 1019.6mb 44f
6:40am 15 18 mph 1019.6mb 43f
6:30am 15 17 mph 1019.6mb 43f
6:20am 13 16 mph 1019.6mb 42f
6:10am 14 18 mph 1019.6mb 42f
6:00am 16 18 mph 1019.6mb 42f
5:50am 14 16 mph 1019.6mb 43f
5:40am 13 16 mph 1019.6mb 43f
5:30am 14 17 mph 1019.6mb 44f
5:20am 6 9 mph 1019.3mb 43f
5:10am 6 8 mph 1019.3mb 42f
5:00am 6 7 mph 1018.6mb 43f
4:50am 2 5 mph 1018.3mb 43f
4:40am 3 7 mph 1017.9mb 43f
4:30am 7 11 mph 1017.6mb 44f
4:20am 3 5 mph 1016.9mb 43f
4:10am 2 3 mph 1017.3mb 42f
4:00am 1 3 mph 1017.3mb 42f
3:50am 2
mph
1017.3mb 42f
3:40am 2 5 mph 1017.3mb 42f
3:30am 3 5 mph 1016.9mb 42f
3:20am 3 5 mph 1016.9mb 42f
3:10am 3 6 mph 1016.6mb 43f
3:00am 5
mph
1016.3mb 43f
2:50am 2 3 mph 1016.9mb 42f
2:40am 2 6 mph 1017.3mb 43f
2:30am 5 13 mph 1017.3mb 43f
2:20am 7 15 mph 1016.9mb 44f
2:10am 5 8 mph 1016.3mb 47f
2:00am 6 10 mph 1015.9mb 48f
1:50am 9 11 mph 1016.3mb 49f
1:40am 8 10 mph 1016.6mb 48f
1:30am 8 11 mph 1016.3mb 48f
1:20am 9 10 mph 1015.9mb 49f
1:10am 8 9 mph 1015.6mb 49f
1:00am 7 11 mph 1015.9mb 49f
12:50am 8 10 mph 1016.3mb 49f
12:40am 7
mph
1016.3mb 47f
12:30am 6 8 mph 1016.3mb 48f
12:20am 7 10 mph 1016.3mb 50f
12:10am 10 13 mph 1015.6mb 49f
12:00am 7 11 mph 1015.6mb 49f
Fri 04/17 11:50pm 9 15 mph 1015.9mb 49f
11:40pm 9 11 mph 1016.6mb 46f
11:30pm 5 6 mph 1016.3mb 46f
11:20pm 3 7 mph 1016.3mb 45f
11:10pm 5 7 mph 1015.9mb 46f
11:00pm 2 5 mph 1015.6mb 44f
10:50pm 2 3 mph 1015.6mb 44f
10:40pm 3 5 mph 1016.3mb 44f
10:30pm 3 5 mph 1016.6mb 44f
10:20pm  -  5 mph 1016.3mb 45f
10:10pm  -  1 mph 1015.9mb 45f
10:00pm 1 2 mph 1015.6mb 46f
9:50pm 2 3 mph 1015.9mb 49f
9:40pm 2 3 mph 1016.6mb 46f
9:30pm 1 3 mph 1016.6mb 46f
9:20pm 2 3 mph 1015.9mb 46f
9:10pm 2
mph
1015.9mb 46f
9:00pm 2 3 mph 1016.3mb 47f
8:50pm 2 5 mph 1016.6mb 46f
8:40pm  -  1 mph 1016.6mb 46f
8:30pm  -  2 mph 1015.9mb 46f
8:20pm 2
mph
1016.3mb 47f
8:10pm  -  2 mph 1016.3mb 50f
8:00pm 2
mph
1015.6mb 48f
7:50pm 1 2 mph 1016.3mb 46f
7:40pm  -  3 mph 1016.3mb 45f
7:30pm 3
mph
1015.9mb 45f
7:20pm  -  mph 1016.6mb 47f
7:10pm  -  mph 1015.9mb 49f
7:00pm  -  1 mph 1016.6mb 48f
6:50pm  -  2 mph 1015.9mb 49f
6:40pm  -  2 mph 1016.9mb 51f
6:30pm 1 3 mph 1016.3mb 51f
6:20pm 2 5 mph 1017.3mb 48f
6:10pm  -  3 mph 1016.9mb 47f
6:00pm 1 2 mph 1017.3mb 47f
5:50pm 2 3 mph 1017.3mb 46f
5:40pm 1 6 mph 1016.6mb 45f
5:30pm 6 7 mph 1017.6mb 44f
5:20pm 1 2 mph 1016.6mb 46f
5:10pm 2
mph
1017.3mb 46f
5:00pm 2 3 mph 1017.3mb 46f
4:50pm 2 3 mph 1016.9mb 46f
4:40pm 2 5 mph 1017.3mb 44f
4:30pm 5 6 mph 1017.3mb 44f
4:20pm 5 6 mph 1016.9mb 44f
4:10pm 5 6 mph 1017.6mb 44f
4:00pm 5 7 mph 1017.3mb 43f
3:50pm 6 7 mph 1016.9mb 43f
3:40pm 6 7 mph 1017.6mb 42f
3:30pm 5 6 mph 1017.6mb 43f
3:20pm 3 5 mph 1017.3mb 44f
3:10pm 5
mph
1017.3mb 43f
3:00pm 3 5 mph 1017.9mb 43f
2:50pm 3 5 mph 1018.6mb 43f
2:40pm 3 6 mph 1018.3mb 45f
2:30pm 6 7 mph 1017.9mb 43f
2:20pm 5 7 mph 1018.6mb 44f
2:10pm 6 7 mph 1019mb 44f
2:00pm 3 6 mph 1018.3mb 44f
1:50pm 5 6 mph 1018.3mb 44f
1:40pm 5 6 mph 1019mb 44f
1:30pm 5 7 mph 1018.6mb 44f
1:20pm 6
mph
1018.3mb 43f
1:10pm 5 6 mph 1019mb 43f
1:00pm 3 6 mph 1018.6mb 44f
12:50pm 5 7 mph 1017.9mb 43f
12:40pm 6 7 mph 1018.6mb 42f
12:30pm 5 7 mph 1019mb 43f
12:20pm 5 7 mph 1018.3mb 43f
12:10pm 6 7 mph 1018.3mb 43f
12:00pm 6 7 mph 1019mb 44f
11:50am 6
mph
1019.3mb 44f
11:40am 3 5 mph 1019.3mb 44f
11:30am 5
mph
1019.3mb 44f
11:20am 2 3 mph 1019.3mb 46f
11:10am 2 5 mph 1020mb 44f
11:00am 3 5 mph 1020mb 44f
10:50am 2 5 mph 1019.3mb 45f
10:40am 2 5 mph 1020.3mb 47f
10:30am 5 6 mph 1020mb 45f
10:20am 5 7 mph 1019.6mb 47f
10:10am 5 6 mph 1019.6mb 47f
10:00am 5
mph
1018.6mb 46f
9:50am 3
mph
1019.3mb 46f
9:40am 2
mph
1019.6mb 47f
9:30am 2 3 mph 1019mb 47f
9:20am 2 3 mph 1019.6mb 46f
9:10am  -  1 mph 1019.6mb 47f
9:00am  -  mph 1019mb 47f
8:50am  -  1 mph 1019.3mb 46f
8:40am  -  1 mph 1019.6mb 46f
8:30am  -  2 mph 1019.6mb 46f
8:20am  -  2 mph 1019mb 46f
8:10am 2 5 mph 1018.6mb 45f
8:00am 2 5 mph 1018.6mb 44f
7:50am 3 5 mph 1018.3mb 44f
7:40am 5 7 mph 1018.3mb 44f
7:30am 5 6 mph 1018.6mb 43f
7:20am 6 8 mph 1018.6mb 43f
7:10am 7 8 mph 1019mb 43f
7:00am 6 9 mph 1019mb 42f
6:50am 3 8 mph 1019.3mb 41f
6:40am 6 9 mph 1018.6mb 40f
6:30am 7 9 mph 1018.6mb 40f
6:20am 7 9 mph 1018.6mb 39f
6:10am 7 9 mph 1018.6mb 39f
6:00am 8 10 mph 1018.6mb 40f
5:50am 9 10 mph 1018.6mb 39f
5:40am 7 8 mph 1019mb 38f
5:30am 6 8 mph 1019mb 38f
5:20am 6 7 mph 1019mb 38f
5:10am 5 6 mph 1019mb 39f
5:00am 3 6 mph 1019mb 39f
4:50am 1 6 mph 1019.3mb 39f
4:40am 5 8 mph 1019mb 40f
4:30am 7 9 mph 1018.6mb 39f
4:20am 6 9 mph 1018.3mb 39f
4:10am 8 9 mph 1018.3mb 40f
4:00am 7 9 mph 1017.9mb 40f
3:50am 8 11 mph 1017.9mb 40f